Time;durP1;ratioP1;P1;durP2;ratioP2;P2;SDS_P1;SDS_P2;PMS_P1;PMS_P2;Temp;Humidity;BMP_temperature;BMP_pressure;BME280_temperature;BME280_humidity;BME280_pressure;Samples;Min_cycle;Max_cycle;Signal;HPM_P1;HPM_P2
2021/10/16 00:01:52;;;;;;;32.63;21.45;;;;;;;6.25;56.21;99658.47;1734640;82;21002;-39
2021/10/16 00:04:18;;;;;;;34.88;21.20;;;;;;;6.25;56.27;99666.55;1734716;82;21050;-39
2021/10/16 00:06:46;;;;;;;38.63;21.45;;;;;;;6.23;56.38;99660.72;1734400;82;21133;-38
2021/10/16 00:09:12;;;;;;;36.25;22.48;;;;;;;6.23;56.43;99660.72;1734589;82;21678;-38
2021/10/16 00:11:39;;;;;;;33.80;21.23;;;;;;;6.24;56.42;99664.20;1734574;82;21013;-38
2021/10/16 00:14:06;;;;;;;47.78;21.57;;;;;;;6.21;56.55;99650.81;1743880;81;21008;-38
2021/10/16 00:16:32;;;;;;;31.87;21.42;;;;;;;6.21;56.56;99652.72;1748585;82;21570;-38
2021/10/16 00:18:59;;;;;;;35.00;22.52;;;;;;;6.19;56.68;99644.98;1748488;82;21491;-38
2021/10/16 00:21:26;;;;;;;36.17;21.42;;;;;;;6.21;56.66;99644.64;1748557;82;21091;-38
2021/10/16 00:23:54;;;;;;;32.08;21.40;;;;;;;6.21;56.65;99635.22;1748581;82;20961;-38
2021/10/16 00:26:21;;;;;;;31.80;20.82;;;;;;;6.21;56.74;99627.94;1748757;82;21017;-38
2021/10/16 00:28:48;;;;;;;34.40;21.52;;;;;;;6.20;56.87;99623.66;1743418;82;20974;-39
2021/10/16 00:31:14;;;;;;;38.10;22.05;;;;;;;6.20;56.82;99620.97;1748634;82;21825;-39
2021/10/16 00:33:41;;;;;;;33.58;21.87;;;;;;;6.20;56.66;99626.34;1748730;82;21571;-38
2021/10/16 00:36:08;;;;;;;36.75;21.02;;;;;;;6.19;56.75;99621.31;1748716;82;21558;-38
2021/10/16 00:38:35;;;;;;;33.30;20.80;;;;;;;6.18;56.74;99624.55;1748783;82;21052;-38
2021/10/16 00:41:02;;;;;;;34.60;21.52;;;;;;;6.17;56.87;99622.97;1748607;82;21048;-38
2021/10/16 00:43:29;;;;;;;33.95;22.60;;;;;;;6.17;56.90;99620.27;1748573;82;21242;-38
2021/10/16 00:45:56;;;;;;;34.50;21.85;;;;;;;6.15;57.00;99611.72;1748564;82;21672;-39
2021/10/16 00:48:23;;;;;;;34.98;22.85;;;;;;;6.14;57.06;99607.47;1748560;82;21008;-38
2021/10/16 00:50:50;;;;;;;34.78;22.07;;;;;;;6.12;57.28;99609.69;1748510;82;20958;-39
2021/10/16 00:53:16;;;;;;;35.83;22.80;;;;;;;6.10;57.36;99611.34;1748424;82;21888;-38
2021/10/16 00:55:44;;;;;;;36.17;21.97;;;;;;;6.07;57.54;99612.00;1748701;82;21511;-38
2021/10/16 00:58:11;;;;;;;35.13;21.60;;;;;;;6.07;57.68;99597.75;1748546;82;21001;-39
2021/10/16 01:00:38;;;;;;;36.65;23.12;;;;;;;6.05;57.70;99606.14;1748546;82;21011;-38
2021/10/16 01:03:05;;;;;;;36.93;22.40;;;;;;;6.05;57.81;99600.00;1748465;82;20954;-38
2021/10/16 01:05:33;;;;;;;34.03;21.65;;;;;;;6.06;57.88;99606.94;1748587;82;21542;-38
2021/10/16 01:08:02;;;;;;;38.10;22.13;;;;;;;6.05;57.92;99607.48;1721673;82;21139;-39
2021/10/16 01:10:29;;;;;;;32.88;21.27;;;;;;;6.06;58.01;99610.97;1748566;82;21025;-39
2021/10/16 01:13:02;;;;;;;34.45;22.17;;;;;;;6.04;58.16;99612.66;1748419;81;21008;-38
2021/10/16 01:15:26;;;;;;;35.68;22.27;;;;;;;6.06;58.34;99608.28;1747972;82;20929;-39
2021/10/16 01:17:53;;;;;;;34.33;22.15;;;;;;;6.09;58.51;99618.42;1748582;82;21538;-39
2021/10/16 01:20:23;;;;;;;34.18;22.52;;;;;;;6.10;58.39;99614.59;1748526;82;21197;-38
2021/10/16 01:22:50;;;;;;;32.67;22.10;;;;;;;6.13;58.46;99611.27;1748537;82;21084;-39
2021/10/16 01:25:20;;;;;;;36.42;23.55;;;;;;;6.16;58.55;99611.96;1721049;82;21535;-38
2021/10/16 01:28:33;;;;;;;35.03;22.13;;;;;;;6.24;58.53;99611.16;1809410;77;23301;-39
2021/10/16 01:30:59;;;;;;;33.55;23.35;;;;;;;6.23;58.66;99605.53;1772587;81;21035;-39
2021/10/16 01:33:29;;;;;;;36.20;21.82;;;;;;;6.36;58.58;99602.36;1772646;81;21114;-38
2021/10/16 01:36:04;;;;;;;35.05;22.30;;;;;;;6.52;58.36;99600.14;1772633;81;21018;-39
2021/10/16 01:38:32;;;;;;;38.35;23.90;;;;;;;6.62;58.20;99602.22;1772664;81;20955;-38
2021/10/16 01:41:00;;;;;;;26.93;17.43;;;;;;;6.70;58.04;99596.77;1772929;81;20967;-38
2021/10/16 01:43:27;;;;;;;37.67;23.15;;;;;;;6.79;57.94;99598.05;1772826;81;21017;-39
2021/10/16 01:45:55;;;;;;;36.42;23.38;;;;;;;6.84;57.69;99595.16;1772600;81;21248;-38
2021/10/16 01:48:24;;;;;;;32.95;22.82;;;;;;;6.92;57.59;99591.63;1772421;81;20923;-39
2021/10/16 01:50:52;;;;;;;36.13;23.83;;;;;;;6.95;57.51;99592.31;1769472;80;20959;-38
2021/10/16 01:53:21;;;;;;;37.37;23.77;;;;;;;7.02;57.46;99598.53;1745194;82;21467;-39
2021/10/16 01:55:49;;;;;;;38.80;23.67;;;;;;;7.03;57.40;99598.73;1778657;80;21063;-39
2021/10/16 01:58:18;;;;;;;39.42;24.55;;;;;;;7.03;57.43;99592.79;1747374;82;21081;-38
2021/10/16 02:00:48;;;;;;;38.90;25.43;;;;;;;7.03;57.56;99594.13;1775377;80;20954;-38
2021/10/16 02:03:14;;;;;;;39.27;23.22;;;;;;;7.06;57.75;99590.80;1779332;80;20990;-39
2021/10/16 02:05:46;;;;;;;37.90;25.30;;;;;;;7.09;57.82;99593.38;1738751;82;20991;-38
2021/10/16 02:08:18;;;;;;;37.85;23.90;;;;;;;7.10;57.78;99597.10;1776081;80;20991;-39
2021/10/16 02:10:44;;;;;;;40.83;26.05;;;;;;;7.13;57.96;99586.99;1748471;82;21757;-39
2021/10/16 02:13:13;;;;;;;39.05;25.17;;;;;;;7.17;58.14;99586.56;1779234;80;21578;-38
2021/10/16 02:15:57;;;;;;;37.30;24.23;;;;;;;7.20;57.94;99585.91;1754111;80;21059;-38
2021/10/16 02:18:27;;;;;;;36.60;24.37;;;;;;;7.21;57.93;99578.03;1748017;82;21043;-39
2021/10/16 02:20:54;;;;;;;37.17;24.67;;;;;;;7.25;57.81;99579.53;1746811;80;21038;-39
2021/10/16 02:23:23;;;;;;;38.13;24.40;;;;;;;7.25;57.77;99576.27;1748099;82;21198;-39
2021/10/16 02:25:50;;;;;;;38.85;24.98;;;;;;;7.25;57.79;99578.97;1779157;80;20987;-38
2021/10/16 02:28:16;;;;;;;38.75;25.45;;;;;;;7.26;58.00;99573.78;1751000;81;21526;-39
2021/10/16 02:30:44;;;;;;;41.75;24.95;;;;;;;7.26;57.80;99572.44;1750438;81;21007;-38
2021/10/16 02:33:11;;;;;;;39.33;26.02;;;;;;;7.26;57.80;99573.78;1751038;81;21550;-39
2021/10/16 02:35:38;;;;;;;37.95;24.57;;;;;;;7.27;57.87;99569.97;1721212;83;21139;-39
2021/10/16 02:38:06;;;;;;;40.05;25.17;;;;;;;7.26;58.12;99564.34;1751019;82;20964;-38
2021/10/16 02:40:32;;;;;;;39.63;25.35;;;;;;;7.29;58.15;99566.39;1750797;82;21028;-39
2021/10/16 02:43:02;;;;;;;37.17;25.40;;;;;;;7.32;58.10;99573.02;1745395;81;20995;-39
2021/10/16 02:45:29;;;;;;;37.78;24.85;;;;;;;7.35;58.18;99571.81;1750823;82;21090;-38
2021/10/16 02:47:56;;;;;;;40.48;25.10;;;;;;;7.36;58.01;99569.33;1750603;82;21175;-38
2021/10/16 02:50:23;;;;;;;38.70;24.65;;;;;;;7.37;58.08;99561.47;1720944;83;21031;-39
2021/10/16 02:52:50;;;;;;;41.23;26.17;;;;;;;7.41;58.15;99569.11;1750562;80;21500;-38
2021/10/16 02:55:17;;;;;;;40.70;24.90;;;;;;;7.41;58.14;99559.67;1750759;82;21881;-38
2021/10/16 02:57:48;;;;;;;38.60;24.77;;;;;;;7.46;58.02;99560.58;1721551;81;21521;-38
2021/10/16 03:00:16;;;;;;;48.85;25.25;;;;;;;7.46;57.99;99559.23;1744198;82;21767;-38
2021/10/16 03:02:43;;;;;;;39.25;25.32;;;;;;;7.49;58.05;99563.98;1750303;82;21672;-38
2021/10/16 03:05:11;;;;;;;39.10;24.95;;;;;;;7.49;58.01;99558.58;1720584;83;21498;-38
2021/10/16 03:07:38;;;;;;;37.20;25.40;;;;;;;7.50;58.04;99564.21;1750417;82;20994;-39
2021/10/16 03:10:08;;;;;;;41.00;25.52;;;;;;;7.52;58.20;99561.95;1750389;81;21028;-38
2021/10/16 03:12:35;;;;;;;41.65;25.82;;;;;;;7.55;58.17;99560.71;1720601;83;21164;-38
2021/10/16 03:15:03;;;;;;;37.13;24.72;;;;;;;7.58;58.04;99563.32;1750466;82;20972;-38
2021/10/16 03:17:30;;;;;;;41.88;26.15;;;;;;;7.58;57.98;99556.58;1750520;82;20997;-38
2021/10/16 03:19:57;;;;;;;36.33;24.37;;;;;;;7.58;57.95;99544.44;1741086;81;20991;-39
2021/10/16 03:22:24;;;;;;;39.20;25.15;;;;;;;7.60;58.04;99544.91;1779363;79;21026;-39
2021/10/16 03:24:51;;;;;;;39.78;26.07;;;;;;;7.60;58.06;99549.70;1792249;79;21101;-38
2021/10/16 03:27:18;;;;;;;38.80;25.52;;;;;;;7.59;57.94;99541.41;1800818;78;20937;-39
2021/10/16 03:29:44;;;;;;;38.38;25.20;;;;;;;7.61;57.97;99541.05;1811806;79;20958;-38
2021/10/16 03:32:12;;;;;;;39.85;24.63;;;;;;;7.62;58.02;99542.64;1811729;79;20965;-38
2021/10/16 03:34:39;;;;;;;39.78;24.50;;;;;;;7.59;57.95;99542.76;1811708;79;21024;-39
2021/10/16 03:37:07;;;;;;;39.08;24.98;;;;;;;7.57;58.06;99549.59;1811846;79;21126;-38
2021/10/16 03:39:35;;;;;;;43.02;25.60;;;;;;;7.57;58.06;99546.90;1811689;79;20941;-38
2021/10/16 03:42:01;;;;;;;38.08;25.62;;;;;;;7.55;58.17;99547.81;1811744;79;21005;-39
2021/10/16 03:44:29;;;;;;;39.65;25.97;;;;;;;7.55;57.98;99553.20;1811793;79;20924;-39
2021/10/16 03:46:56;;;;;;;38.88;24.27;;;;;;;7.52;58.10;99545.77;1806031;79;21586;-38
2021/10/16 03:49:24;;;;;;;42.20;24.92;;;;;;;7.50;58.35;99547.47;1811888;79;21111;-39
2021/10/16 03:51:51;;;;;;;35.52;24.80;;;;;;;7.50;58.24;99547.47;1828076;77;20993;-38
2021/10/16 03:54:18;;;;;;;41.40;26.05;;;;;;;7.51;58.39;99546.88;1842507;77;20958;-38
2021/10/16 03:56:45;;;;;;;38.48;24.52;;;;;;;7.51;58.38;99552.27;1842137;77;21021;-38
2021/10/16 03:59:12;;;;;;;38.90;25.17;;;;;;;7.49;58.41;99551.28;1754363;81;21029;-39
2021/10/16 04:01:39;;;;;;;39.60;24.98;;;;;;;7.49;58.52;99550.48;1842157;77;21107;-39
2021/10/16 04:04:06;;;;;;;39.98;25.82;;;;;;;7.50;58.52;99550.72;1760337;81;21593;-39
2021/10/16 04:06:34;;;;;;;37.58;25.23;;;;;;;7.51;58.55;99552.27;1842003;77;20910;-38
2021/10/16 04:09:00;;;;;;;37.63;25.23;;;;;;;7.52;58.54;99552.51;1842203;77;21790;-39
2021/10/16 04:11:27;;;;;;;37.65;25.32;;;;;;;7.54;58.53;99555.67;1760068;81;21016;-39
2021/10/16 04:13:54;;;;;;;35.60;24.92;;;;;;;7.55;58.55;99553.97;1842215;77;21087;-38
2021/10/16 04:16:20;;;;;;;36.85;24.75;;;;;;;7.56;58.61;99548.02;1842047;77;20906;-39
2021/10/16 04:18:49;;;;;;;37.80;25.37;;;;;;;7.56;58.58;99558.25;1759974;81;21011;-39
2021/10/16 04:21:16;;;;;;;37.50;25.20;;;;;;;7.54;58.67;99552.41;1841745;77;21492;-39
2021/10/16 04:23:44;;;;;;;42.75;26.82;;;;;;;7.54;58.86;99548.93;1760562;81;21017;-39
2021/10/16 04:26:12;;;;;;;40.90;25.70;;;;;;;7.52;58.83;99549.81;1841836;77;21076;-39
2021/10/16 04:28:39;;;;;;;40.20;26.68;;;;;;;7.48;58.89;99551.05;1745594;81;20997;-39
2021/10/16 04:31:07;;;;;;;39.13;26.48;;;;;;;7.47;59.00;99551.37;1767509;81;20954;-39
2021/10/16 04:33:34;;;;;;;40.43;27.17;;;;;;;7.43;59.15;99549.91;1738913;82;21535;-39
2021/10/16 04:36:02;;;;;;;39.30;25.70;;;;;;;7.39;59.32;99544.41;1768989;81;20987;-39
2021/10/16 04:38:29;;;;;;;40.80;25.32;;;;;;;7.37;59.40;99553.38;1739201;82;21114;-38
2021/10/16 04:40:55;;;;;;;36.93;25.08;;;;;;;7.38;59.50;99553.61;1768862;81;21515;-38
2021/10/16 04:43:22;;;;;;;42.27;26.25;;;;;;;7.38;59.45;99554.95;1738700;82;20961;-39
2021/10/16 04:45:49;;;;;;;36.70;25.43;;;;;;;7.39;59.56;99555.19;1769080;81;21018;-39
2021/10/16 04:48:16;;;;;;;38.23;23.45;;;;;;;7.43;59.54;99557.44;1726141;82;21773;-38
2021/10/16 04:50:45;;;;;;;38.20;24.10;;;;;;;7.52;59.54;99564.65;1770511;80;21978;-39
2021/10/16 04:53:12;;;;;;;36.80;25.10;;;;;;;7.63;59.50;99556.36;1786755;80;21590;-39
2021/10/16 04:55:39;;;;;;;39.83;24.67;;;;;;;7.72;59.42;99553.79;1786728;80;20959;-38
2021/10/16 04:58:06;;;;;;;36.40;24.63;;;;;;;7.80;59.20;99548.84;1786694;80;20986;-39
2021/10/16 05:00:38;;;;;;;37.73;25.17;;;;;;;7.88;58.99;99546.39;1785839;80;20975;-38
2021/10/16 05:03:07;;;;;;;38.48;25.02;;;;;;;7.91;58.95;99541.09;1786565;80;21946;-38
2021/10/16 05:05:36;;;;;;;35.52;24.80;;;;;;;7.94;58.81;99544.46;1786623;80;21040;-38
2021/10/16 05:08:05;;;;;;;34.33;23.67;;;;;;;7.97;58.68;99543.80;1786733;80;28626;-38
2021/10/16 05:10:34;;;;;;;37.23;24.90;;;;;;;8.00;58.72;99536.37;1786389;80;21075;-38
2021/10/16 05:13:01;;;;;;;37.50;25.05;;;;;;;8.02;58.62;99535.48;1786600;80;21024;-39
2021/10/16 05:15:28;;;;;;;40.88;23.27;;;;;;;8.04;58.64;99530.52;1786303;80;21119;-39
2021/10/16 05:17:57;;;;;;;38.95;24.37;;;;;;;8.06;58.77;99523.44;1786154;80;21534;-39
2021/10/16 05:20:26;;;;;;;36.35;24.65;;;;;;;8.08;58.70;99525.25;1786462;80;21464;-39
2021/10/16 05:22:53;;;;;;;37.20;23.87;;;;;;;8.09;58.84;99532.98;1786313;80;21029;-39
2021/10/16 05:25:20;;;;;;;39.65;23.95;;;;;;;8.10;58.73;99531.88;1786465;80;21084;-38
2021/10/16 05:27:49;;;;;;;34.88;24.18;;;;;;;8.11;58.74;99537.50;1786520;80;21479;-38
2021/10/16 05:30:18;;;;;;;45.10;24.90;;;;;;;8.13;58.78;99541.98;1786202;80;21074;-39
2021/10/16 05:32:46;;;;;;;35.50;24.10;;;;;;;8.14;58.90;99536.81;1786506;80;21045;-38
2021/10/16 05:35:14;;;;;;;35.98;23.67;;;;;;;8.18;58.90;99538.30;1786351;80;21373;-38
2021/10/16 05:37:42;;;;;;;35.80;24.07;;;;;;;8.18;58.90;99543.11;1786387;80;21010;-38
2021/10/16 05:40:10;;;;;;;35.60;24.37;;;;;;;8.17;58.99;99537.51;1786237;80;21984;-38
2021/10/16 05:42:37;;;;;;;39.13;24.40;;;;;;;8.20;59.03;99535.47;1786585;80;21016;-38
2021/10/16 05:45:07;;;;;;;37.35;25.37;;;;;;;8.24;59.10;99545.81;1786375;80;20924;-39
2021/10/16 05:47:36;;;;;;;37.83;23.85;;;;;;;8.26;59.07;99540.08;1786489;80;21008;-38
2021/10/16 05:50:07;;;;;;;39.23;24.92;;;;;;;8.26;59.17;99547.62;1786652;80;21083;-39
2021/10/16 05:52:35;;;;;;;37.08;25.12;;;;;;;8.28;59.12;99545.35;1778897;80;21151;-38
2021/10/16 05:55:04;;;;;;;39.75;24.95;;;;;;;8.31;59.24;99540.44;1777443;80;21019;-38
2021/10/16 05:57:33;;;;;;;39.92;25.20;;;;;;;8.35;59.28;99540.77;1777477;80;20942;-39
2021/10/16 05:59:59;;;;;;;37.23;23.35;;;;;;;8.36;59.18;99536.16;1777223;80;21550;-38
2021/10/16 06:02:28;;;;;;;35.88;24.15;;;;;;;8.34;59.34;99527.59;1777457;80;20977;-39
2021/10/16 06:04:56;;;;;;;33.92;23.32;;;;;;;8.36;59.31;99527.50;1777310;80;21876;-38
2021/10/16 06:07:23;;;;;;;35.88;23.65;;;;;;;8.39;59.33;99528.72;1777367;80;21043;-39
2021/10/16 06:09:51;;;;;;;38.88;24.50;;;;;;;8.42;59.40;99538.30;1777047;80;21537;-38
2021/10/16 06:12:18;;;;;;;44.63;25.08;;;;;;;8.45;59.34;99534.12;1777253;80;21028;-39
2021/10/16 06:14:45;;;;;;;35.35;23.40;;;;;;;8.44;59.42;99540.64;1777271;80;21064;-39
2021/10/16 06:17:14;;;;;;;38.08;24.60;;;;;;;8.41;59.63;99546.73;1775827;80;21136;-39
2021/10/16 06:19:41;;;;;;;37.03;23.80;;;;;;;8.39;59.87;99551.67;1777330;80;20930;-38
2021/10/16 06:22:08;;;;;;;34.90;22.37;;;;;;;8.44;60.00;99558.20;1777183;80;20989;-38
2021/10/16 06:24:35;;;;;;;32.85;22.65;;;;;;;8.54;60.05;99558.53;1777375;80;21534;-39
2021/10/16 06:27:02;;;;;;;33.42;22.20;;;;;;;8.61;60.04;99556.61;1777364;80;21013;-38
2021/10/16 06:29:28;;;;;;;35.05;23.00;;;;;;;8.66;60.16;99553.67;1777357;80;21113;-38
2021/10/16 06:31:56;;;;;;;33.70;22.55;;;;;;;8.68;60.17;99549.48;1777356;80;20961;-38
2021/10/16 06:34:23;;;;;;;32.90;23.18;;;;;;;8.71;60.15;99550.73;1777201;80;21016;-39
2021/10/16 06:36:50;;;;;;;34.15;22.80;;;;;;;8.73;60.11;99551.16;1777403;80;21001;-39
2021/10/16 06:39:17;;;;;;;34.95;23.32;;;;;;;8.76;60.13;99555.91;1777334;80;21013;-39
2021/10/16 06:41:45;;;;;;;36.58;22.95;;;;;;;8.80;60.12;99559.49;1776443;80;21147;-39
2021/10/16 06:44:27;;;;;;;33.40;22.20;;;;;;;8.82;60.10;99553.16;1777235;80;21072;-39
2021/10/16 06:47:14;;;;;;;31.57;22.07;;;;;;;8.86;60.19;99558.69;1724041;83;21715;-39
2021/10/16 06:49:42;;;;;;;34.98;23.57;;;;;;;8.88;60.10;99550.45;1723995;83;21052;-39
2021/10/16 06:52:11;;;;;;;32.13;22.77;;;;;;;8.91;60.23;99550.31;1743855;80;21045;-39
2021/10/16 06:54:38;;;;;;;31.07;21.82;;;;;;;7.46;60.11;99320.52;1777699;80;21523;-39
2021/10/16 06:57:05;;;;;;;33.58;24.07;;;;;;;8.97;60.22;99537.56;1777499;80;21523;-39
2021/10/16 06:59:32;;;;;;;34.98;23.32;;;;;;;9.04;60.23;99531.02;1777570;80;21463;-39
2021/10/16 07:01:59;;;;;;;37.15;23.52;;;;;;;9.15;60.39;99523.95;1777587;80;21020;-39
2021/10/16 07:04:27;;;;;;;32.65;22.02;;;;;;;9.28;60.29;99527.97;1776908;80;21530;-38
2021/10/16 07:06:55;;;;;;;35.20;21.55;;;;;;;9.45;60.13;99528.98;1777420;80;21138;-38
2021/10/16 07:09:24;;;;;;;37.55;22.32;;;;;;;9.62;59.78;99535.44;1776849;80;20925;-39
2021/10/16 07:11:50;;;;;;;34.50;21.95;;;;;;;9.78;59.40;99533.50;1777431;80;20985;-39
2021/10/16 07:14:17;;;;;;;31.00;22.00;;;;;;;9.88;59.12;99530.27;1777307;80;21044;-39
2021/10/16 07:16:44;;;;;;;35.33;22.07;;;;;;;9.97;59.06;99535.53;1777445;80;21131;-39
2021/10/16 07:19:11;;;;;;;35.25;22.17;;;;;;;10.06;58.77;99544.82;1777321;80;21139;-38
2021/10/16 07:21:38;;;;;;;30.25;21.30;;;;;;;10.12;58.64;99540.72;1777481;80;20950;-39
2021/10/16 07:24:05;;;;;;;38.67;21.87;;;;;;;10.22;58.40;99546.39;1777438;80;21016;-39
2021/10/16 07:26:32;;;;;;;26.97;19.82;;;;;;;10.32;58.28;99549.91;1777512;80;21037;-38
2021/10/16 07:28:59;;;;;;;28.32;20.77;;;;;;;10.42;58.42;99552.08;1785081;80;21075;-39
2021/10/16 07:31:28;;;;;;;34.00;22.30;;;;;;;10.55;58.15;99556.83;1795129;80;21150;-38
2021/10/16 07:33:56;;;;;;;28.95;20.97;;;;;;;10.66;57.56;99561.11;1795181;80;21003;-39
2021/10/16 07:36:23;;;;;;;28.77;21.07;;;;;;;10.74;57.47;99565.56;1795362;80;20909;-39
2021/10/16 07:38:50;;;;;;;29.52;20.20;;;;;;;10.81;57.45;99558.34;1795440;80;21471;-39
2021/10/16 07:41:17;;;;;;;30.30;19.92;;;;;;;10.90;57.14;99556.21;1795268;80;21083;-39
2021/10/16 07:43:44;;;;;;;30.15;20.55;;;;;;;10.99;56.62;99566.84;1795455;80;21826;-39
2021/10/16 07:46:11;;;;;;;29.57;20.90;;;;;;;11.07;56.66;99550.15;1795078;80;21346;-39
2021/10/16 07:48:39;;;;;;;28.65;22.13;;;;;;;11.14;56.05;99544.84;1795239;80;20921;-39
2021/10/16 07:51:05;;;;;;;32.88;22.07;;;;;;;11.21;56.23;99544.43;1795123;80;21515;-38
2021/10/16 07:53:32;;;;;;;29.65;21.40;;;;;;;11.28;55.95;99544.55;1794747;80;20998;-39
2021/10/16 07:55:59;;;;;;;29.00;20.65;;;;;;;11.36;55.64;99537.34;1795382;79;21151;-38
2021/10/16 07:58:25;;;;;;;27.93;20.40;;;;;;;11.39;55.64;99529.03;1795173;80;21723;-39
2021/10/16 08:00:52;;;;;;;28.65;20.08;;;;;;;11.57;55.66;99533.63;1795196;80;20925;-38
2021/10/16 08:03:18;;;;;;;32.85;20.97;;;;;;;11.72;55.36;99534.66;1795114;80;22039;-39
2021/10/16 08:05:45;;;;;;;30.27;20.97;;;;;;;11.85;54.67;99535.31;1795354;80;21114;-39
2021/10/16 08:08:12;;;;;;;27.82;20.45;;;;;;;11.95;54.52;99537.42;1795157;79;21508;-39
2021/10/16 08:10:39;;;;;;;24.65;18.87;;;;;;;12.02;53.97;99533.44;1795066;80;20905;-39
2021/10/16 08:13:06;;;;;;;24.20;18.45;;;;;;;12.05;54.08;99523.22;1795470;80;21509;-38
2021/10/16 08:15:34;;;;;;;30.10;20.72;;;;;;;12.08;54.32;99513.75;1795456;80;21541;-39
2021/10/16 08:18:03;;;;;;;32.60;19.92;;;;;;;12.13;53.83;99513.44;1795512;80;20990;-39
2021/10/16 08:20:30;;;;;;;30.95;22.02;;;;;;;12.20;53.95;99514.10;1795367;79;21039;-39
2021/10/16 08:22:57;;;;;;;28.73;21.27;;;;;;;12.32;53.50;99511.76;1795180;80;21585;-39
2021/10/16 08:25:24;;;;;;;30.92;20.00;;;;;;;12.44;53.37;99512.91;1795050;80;20929;-39
2021/10/16 08:27:50;;;;;;;29.72;21.33;;;;;;;12.57;53.09;99518.33;1795367;80;21059;-39
2021/10/16 08:30:17;;;;;;;28.60;20.80;;;;;;;12.67;52.76;99519.62;1780449;80;21483;-39
2021/10/16 08:32:43;;;;;;;32.38;22.42;;;;;;;12.70;52.60;99531.11;1777305;80;21145;-39
2021/10/16 08:35:10;;;;;;;27.00;20.12;;;;;;;12.69;52.79;99528.97;1777395;80;21555;-39
2021/10/16 08:37:37;;;;;;;27.42;21.70;;;;;;;12.71;52.64;99534.83;1777447;80;21033;-39
2021/10/16 08:40:05;;;;;;;26.30;19.75;;;;;;;12.75;52.78;99538.38;1777430;80;20997;-39
2021/10/16 08:42:33;;;;;;;22.40;18.25;;;;;;;12.84;52.62;99541.59;1777705;80;21001;-39
2021/10/16 08:45:03;;;;;;;29.85;20.40;;;;;;;12.95;51.98;99556.70;1777422;80;21079;-38
2021/10/16 08:47:36;;;;;;;22.85;15.20;;;;;;;13.00;52.02;99552.30;1777418;80;22244;-39
2021/10/16 08:50:06;;;;;;;25.05;18.48;;;;;;;13.07;51.65;99549.64;1777657;80;20973;-39
2021/10/16 08:52:34;;;;;;;25.25;18.25;;;;;;;13.13;51.85;99550.92;1777537;80;21099;-39
2021/10/16 08:55:01;;;;;;;24.65;17.55;;;;;;;13.23;51.05;99546.17;1777605;80;21009;-39
2021/10/16 08:57:32;;;;;;;23.47;16.95;;;;;;;13.29;50.77;99543.33;1777490;80;21497;-39
2021/10/16 09:00:20;;;;;;;23.35;17.00;;;;;;;13.35;51.02;99539.13;1777599;80;20957;-39
2021/10/16 09:02:48;;;;;;;22.35;16.65;;;;;;;13.45;50.12;99539.81;1775888;80;21014;-38
2021/10/16 09:05:15;;;;;;;21.23;17.02;;;;;;;13.49;49.92;99550.73;1777180;80;21029;-39
2021/10/16 09:07:41;;;;;;;24.15;17.20;;;;;;;13.52;49.75;99545.11;1777518;80;21041;-39
2021/10/16 09:10:22;;;;;;;22.65;17.60;;;;;;;13.59;49.88;99541.89;1777400;80;21130;-39
2021/10/16 09:12:51;;;;;;;25.48;16.82;;;;;;;13.70;49.36;99535.19;1777306;80;21009;-39
2021/10/16 09:15:22;;;;;;;25.48;17.42;;;;;;;13.74;48.97;99531.33;1777508;80;20965;-39
2021/10/16 09:18:06;;;;;;;26.20;17.73;;;;;;;13.79;48.85;99535.65;1777352;80;21033;-39
2021/10/16 09:20:36;;;;;;;25.55;16.87;;;;;;;13.86;49.04;99532.97;1777350;80;21009;-39
2021/10/16 09:23:09;;;;;;;22.40;17.15;;;;;;;13.99;49.12;99530.14;1777285;80;21146;-39
2021/10/16 09:25:37;;;;;;;22.07;16.27;;;;;;;14.14;48.37;99526.95;1777480;80;21061;-39
2021/10/16 09:28:19;;;;;;;26.37;17.32;;;;;;;14.28;47.91;99536.62;1777302;80;21012;-39
2021/10/16 09:30:46;;;;;;;21.37;16.37;;;;;;;14.40;47.37;99532.80;1771232;80;21464;-39
2021/10/16 09:33:13;;;;;;;17.20;13.95;;;;;;;14.44;46.56;99526.21;1760570;79;21095;-39
2021/10/16 09:35:41;;;;;;;24.65;16.25;;;;;;;14.47;46.66;99531.50;1770519;81;21164;-39
2021/10/16 09:38:08;;;;;;;19.25;14.70;;;;;;;14.56;46.30;99532.73;1770613;80;21509;-39
2021/10/16 09:40:40;;;;;;;19.15;14.38;;;;;;;14.67;46.58;99533.54;1738517;81;21008;-39
2021/10/16 09:43:22;;;;;;;19.95;15.65;;;;;;;14.80;45.97;99540.83;1770684;80;21531;-39
2021/10/16 09:46:17;;;;;;;23.73;14.40;;;;;;;14.91;45.23;99529.97;1770856;81;21029;-39
2021/10/16 09:48:47;;;;;;;19.15;13.15;;;;;;;15.00;44.69;99532.54;1770754;81;21153;-39
2021/10/16 09:51:18;;;;;;;19.12;14.73;;;;;;;15.09;44.41;99532.95;1770831;81;21022;-39
2021/10/16 09:53:47;;;;;;;18.62;14.28;;;;;;;15.18;44.72;99537.47;1769963;81;21025;-39
2021/10/16 09:56:14;;;;;;;25.72;15.30;;;;;;;15.27;44.75;99533.58;1770738;81;21469;-39
2021/10/16 09:58:41;;;;;;;22.05;15.45;;;;;;;15.34;44.43;99538.50;1770961;81;21068;-39
2021/10/16 10:01:09;;;;;;;21.37;15.18;;;;;;;15.41;44.36;99533.62;1770701;81;21551;-39
2021/10/16 10:03:41;;;;;;;20.70;15.10;;;;;;;15.50;44.19;99535.39;1770528;81;21512;-39
2021/10/16 10:06:09;;;;;;;18.92;14.10;;;;;;;15.57;43.53;99532.71;1765161;81;20958;-39
2021/10/16 10:08:36;;;;;;;21.00;14.20;;;;;;;15.62;43.40;99525.49;1770710;81;21073;-39
2021/10/16 10:11:03;;;;;;;23.00;14.63;;;;;;;15.73;43.27;99531.77;1770632;81;21025;-39
2021/10/16 10:13:30;;;;;;;18.23;13.35;;;;;;;15.86;43.39;99523.36;1770782;81;21179;-39
2021/10/16 10:15:56;;;;;;;19.12;14.47;;;;;;;15.99;43.01;99525.89;1770602;80;21055;-39
2021/10/16 10:21:08;;;;;;;18.15;13.48;;;;;;;16.18;42.06;99523.33;1770673;80;21307;-39
2021/10/16 10:23:36;;;;;;;17.65;14.30;;;;;;;16.15;41.66;99521.39;1747388;80;21531;-39
2021/10/16 10:26:28;;;;;;;17.95;14.25;;;;;;;16.17;41.85;99514.17;1770897;81;21765;-39
2021/10/16 10:29:02;;;;;;;19.65;14.65;;;;;;;16.26;41.99;99513.96;1770792;81;20945;-39
2021/10/16 10:31:55;;;;;;;21.50;14.53;;;;;;;16.35;41.69;99506.71;1770871;81;20989;-39
2021/10/16 10:34:30;;;;;;;22.00;14.20;;;;;;;16.36;42.02;99507.66;1770783;81;20973;-39
2021/10/16 10:37:04;;;;;;;16.25;13.13;;;;;;;16.43;41.71;99497.30;1770871;80;21706;-39
2021/10/16 10:39:36;;;;;;;17.67;13.50;;;;;;;16.50;40.81;99499.45;1770763;81;21179;-40
2021/10/16 10:42:16;;;;;;;18.57;14.18;;;;;;;16.52;40.90;99503.13;1770760;81;21005;-39
2021/10/16 10:44:52;;;;;;;17.45;13.65;;;;;;;16.58;40.76;99499.41;1770822;81;20938;-39
2021/10/16 10:47:31;;;;;;;18.27;13.93;;;;;;;16.62;40.80;99487.30;1770844;80;20942;-39
2021/10/16 10:50:03;;;;;;;;;;;;;;;16.69;40.80;99493.34;1773664;81;21002;-39
2021/10/16 10:53:05;;;;;;;16.25;12.47;;;;;;;16.78;40.75;99483.53;1770968;79;21445;-39
2021/10/16 10:55:32;;;;;;;13.58;10.18;;;;;;;16.80;39.99;99488.59;1770618;81;21571;-39
2021/10/16 10:58:00;;;;;;;14.87;11.30;;;;;;;16.89;38.19;99478.77;1770805;81;20961;-39
2021/10/16 11:00:37;;;;;;;18.75;11.33;;;;;;;16.97;38.83;99488.33;1770935;80;20973;-39
2021/10/16 11:03:32;;;;;;;13.10;10.38;;;;;;;17.04;39.49;99483.59;1770788;80;21085;-39
2021/10/16 11:06:14;;;;;;;13.03;10.13;;;;;;;17.16;38.16;99475.51;1770677;81;21143;-39
2021/10/16 11:08:44;;;;;;;14.47;11.03;;;;;;;17.21;37.81;99475.09;1760962;81;20895;-39
2021/10/16 11:11:11;;;;;;;13.32;10.95;;;;;;;17.26;38.07;99471.34;1771014;80;20957;-40
2021/10/16 11:13:38;;;;;;;14.95;10.63;;;;;;;17.41;37.50;99472.61;1770681;80;21004;-39
2021/10/16 11:16:06;;;;;;;15.00;11.55;;;;;;;17.59;36.94;99469.95;1770677;81;21083;-39
2021/10/16 11:18:34;;;;;;;16.32;10.65;;;;;;;17.72;36.62;99461.42;1770649;81;21071;-39
2021/10/16 11:21:10;;;;;;;15.18;10.32;;;;;;;17.83;36.43;99470.16;1770611;81;20918;-39
2021/10/16 11:23:39;;;;;;;14.40;10.75;;;;;;;17.87;35.94;99464.81;1766268;81;20989;-39
2021/10/16 11:26:10;;;;;;;12.60;10.23;;;;;;;17.88;35.77;99465.59;1770497;81;21100;-39
2021/10/16 11:28:39;;;;;;;14.40;10.85;;;;;;;17.90;35.58;99456.39;1770503;81;21088;-39
2021/10/16 11:31:07;;;;;;;17.15;10.80;;;;;;;17.94;35.77;99458.50;1775776;80;21115;-39
2021/10/16 11:33:38;;;;;;;15.23;12.20;;;;;;;18.02;35.91;99458.61;1777553;80;21008;-40